createdAt,value
2019-04-16T00:01:48.934Z,13.90
2019-04-16T00:04:53.629Z,13.90
2019-04-16T00:07:39.797Z,13.80
2019-04-16T00:10:27.026Z,13.80
2019-04-16T00:13:20.698Z,13.80
2019-04-16T00:15:49.637Z,13.80
2019-04-16T00:18:19.414Z,13.80
2019-04-16T00:21:16.753Z,13.80
2019-04-16T00:23:59.893Z,13.70
2019-04-16T00:26:28.844Z,13.70
2019-04-16T00:29:01.621Z,13.70
2019-04-16T00:31:28.888Z,13.70
2019-04-16T00:33:57.835Z,13.70
2019-04-16T00:36:26.714Z,13.60
2019-04-16T00:38:55.586Z,13.70
2019-04-16T00:41:24.408Z,13.70
2019-04-16T00:43:53.320Z,13.70
2019-04-16T00:46:22.310Z,13.60
2019-04-16T00:48:52.230Z,13.60
2019-04-16T00:51:21.141Z,13.50
2019-04-16T00:53:50.108Z,13.50
2019-04-16T00:56:18.948Z,13.50
2019-04-16T00:58:49.417Z,13.50
2019-04-16T01:01:18.573Z,13.50
2019-04-16T01:03:47.394Z,13.50
2019-04-16T01:06:16.231Z,13.50
2019-04-16T01:08:54.354Z,13.50
2019-04-16T01:11:15.607Z,13.50
2019-04-16T01:13:45.146Z,13.50
2019-04-16T01:16:14.338Z,13.50
2019-04-16T01:18:43.341Z,13.40
2019-04-16T01:21:14.150Z,13.40
2019-04-16T01:23:42.974Z,13.40
2019-04-16T01:26:11.819Z,13.40
2019-04-16T01:28:46.848Z,13.30
2019-04-16T01:31:44.738Z,13.40
2019-04-16T01:34:32.760Z,13.50
2019-04-16T01:37:19.240Z,13.40
2019-04-16T01:39:50.436Z,13.50
2019-04-16T01:42:23.136Z,13.30
2019-04-16T01:44:49.901Z,13.30
2019-04-16T01:47:18.750Z,13.30
2019-04-16T01:49:47.612Z,13.30
2019-04-16T01:52:18.940Z,13.30
2019-04-16T01:54:47.270Z,13.30
2019-04-16T01:57:16.262Z,13.20
2019-04-16T01:59:45.109Z,13.30
2019-04-16T02:02:15.580Z,13.30
2019-04-16T02:04:44.577Z,13.20
2019-04-16T02:07:13.522Z,13.30
2019-04-16T02:09:42.514Z,13.30
2019-04-16T02:12:13.231Z,13.20
2019-04-16T02:14:42.163Z,13.20
2019-04-16T02:17:11.169Z,13.20
2019-04-16T02:19:40.033Z,13.10
2019-04-16T02:22:12.570Z,13.10
2019-04-16T02:24:39.478Z,13.00
2019-04-16T02:27:08.558Z,13.00
2019-04-16T02:29:37.599Z,13.10
2019-04-16T02:32:06.527Z,13.10
2019-04-16T02:34:35.393Z,13.10
2019-04-16T02:37:04.600Z,13.00
2019-04-16T02:39:47.610Z,13.00
2019-04-16T02:42:04.706Z,13.00
2019-04-16T02:44:33.729Z,13.00
2019-04-16T02:47:06.219Z,13.00
2019-04-16T02:49:33.313Z,13.00
2019-04-16T02:52:06.387Z,13.00
2019-04-16T02:54:45.716Z,13.10
2019-04-16T02:57:39.474Z,13.00
2019-04-16T03:00:22.889Z,13.00
2019-04-16T03:02:57.294Z,12.90
2019-04-16T03:05:37.926Z,12.90
2019-04-16T03:08:06.856Z,12.90
2019-04-16T03:10:36.395Z,12.90
2019-04-16T03:13:05.305Z,12.90
2019-04-16T03:16:06.352Z,12.90
2019-04-16T03:18:48.201Z,12.90
2019-04-16T03:21:17.429Z,12.80
2019-04-16T03:23:46.375Z,12.80
2019-04-16T03:26:17.588Z,12.70
2019-04-16T03:28:45.958Z,12.70
2019-04-16T03:31:20.676Z,12.70
2019-04-16T03:33:50.215Z,12.70
2019-04-16T03:36:16.154Z,12.70
2019-04-16T03:38:45.021Z,12.60
2019-04-16T03:41:13.938Z,12.60
2019-04-16T03:43:42.918Z,12.60
2019-04-16T03:46:13.097Z,12.60
2019-04-16T03:48:42.542Z,12.50
2019-04-16T03:51:11.487Z,12.50
2019-04-16T03:53:40.401Z,12.50
2019-04-16T03:56:09.321Z,12.40
2019-04-16T03:58:39.401Z,12.40
2019-04-16T04:01:08.414Z,12.40
2019-04-16T04:03:37.275Z,12.40
2019-04-16T04:06:06.929Z,12.40
2019-04-16T04:08:37.223Z,12.40
2019-04-16T04:11:09.186Z,12.40
2019-04-16T04:13:36.786Z,12.40
2019-04-16T04:16:06.012Z,12.40
2019-04-16T04:18:35.013Z,12.40
2019-04-16T04:21:03.910Z,12.40
2019-04-16T04:23:32.771Z,12.40
2019-04-16T04:26:01.669Z,12.30
2019-04-16T04:28:30.521Z,12.30
2019-04-16T04:31:00.880Z,12.30
2019-04-16T04:33:40.991Z,12.30
2019-04-16T04:36:09.441Z,12.30
2019-04-16T04:38:39.619Z,12.30
2019-04-16T04:41:08.855Z,12.30
2019-04-16T04:43:37.997Z,12.20
2019-04-16T04:46:12.976Z,12.20
2019-04-16T04:48:37.635Z,12.20
2019-04-16T04:51:08.144Z,12.20
2019-04-16T04:53:37.194Z,12.20
2019-04-16T04:56:06.164Z,12.20
2019-04-16T04:58:35.171Z,12.20
2019-04-16T05:01:04.155Z,12.20
2019-04-16T05:04:04.361Z,12.30
2019-04-16T05:06:36.078Z,12.30
2019-04-16T05:09:06.356Z,12.20
2019-04-16T05:11:35.232Z,12.20
2019-04-16T05:14:04.283Z,12.20
2019-04-16T05:16:34.370Z,12.20
2019-04-16T05:19:04.191Z,12.20
2019-04-16T05:21:33.070Z,12.20
2019-04-16T05:24:01.914Z,12.20
2019-04-16T05:26:33.524Z,12.20
2019-04-16T05:29:16.309Z,12.20
2019-04-16T05:31:42.882Z,12.30
2019-04-16T05:34:11.862Z,12.30
2019-04-16T05:36:46.573Z,12.30
2019-04-16T05:39:11.441Z,12.30
2019-04-16T05:41:40.371Z,12.30
2019-04-16T05:44:09.287Z,12.30
2019-04-16T05:46:38.343Z,12.30
2019-04-16T05:49:07.663Z,12.30
2019-04-16T05:51:36.506Z,12.30
2019-04-16T05:54:27.633Z,12.30
2019-04-16T05:56:58.331Z,12.30
2019-04-16T05:59:27.202Z,12.30
2019-04-16T06:02:04.977Z,12.30
2019-04-16T06:04:34.071Z,12.30
2019-04-16T06:07:07.315Z,12.40
2019-04-16T06:09:33.604Z,12.40
2019-04-16T06:12:02.505Z,12.50
2019-04-16T06:14:41.843Z,12.50
2019-04-16T06:17:31.891Z,12.50
2019-04-16T06:20:07.477Z,12.60
2019-04-16T06:22:54.161Z,12.60
2019-04-16T06:25:41.041Z,12.70
2019-04-16T06:28:15.439Z,12.70
2019-04-16T06:30:48.238Z,12.80
2019-04-16T06:33:20.947Z,12.90
2019-04-16T06:36:08.501Z,13.00
2019-04-16T06:38:51.074Z,13.30
2019-04-16T06:41:41.802Z,13.50
2019-04-16T06:44:12.900Z,13.80
2019-04-16T06:46:51.369Z,14.00
2019-04-16T06:49:28.099Z,14.20
2019-04-16T06:52:19.164Z,14.30
2019-04-16T06:55:00.503Z,14.40
2019-04-16T06:57:45.129Z,14.50
2019-04-16T07:00:35.085Z,14.60
2019-04-16T07:03:28.752Z,14.80
2019-04-16T07:06:30.236Z,14.90
2019-04-16T07:09:24.594Z,15.00
2019-04-16T07:11:54.941Z,15.20
2019-04-16T07:14:24.218Z,15.30
2019-04-16T07:16:53.050Z,15.30
2019-04-16T07:19:22.110Z,15.40
2019-04-16T07:21:50.989Z,15.50
2019-04-16T07:24:22.770Z,15.60
2019-04-16T07:26:50.635Z,15.70
2019-04-16T07:29:31.570Z,15.80
2019-04-16T07:32:15.333Z,15.90
2019-04-16T07:34:53.436Z,15.90
2019-04-16T07:37:33.074Z,16.00
2019-04-16T07:40:36.048Z,16.10
2019-04-16T07:43:24.096Z,16.30
2019-04-16T07:46:03.120Z,16.40
2019-04-16T07:48:39.847Z,16.60
2019-04-16T07:51:36.043Z,16.60
2019-04-16T07:54:30.635Z,16.70
2019-04-16T07:56:59.570Z,16.80
2019-04-16T07:59:32.001Z,16.90
2019-04-16T08:01:59.100Z,16.90
2019-04-16T08:04:29.175Z,16.90
2019-04-16T08:06:58.447Z,16.90
2019-04-16T08:09:29.949Z,17.00
2019-04-16T08:11:58.117Z,17.00
2019-04-16T08:14:26.962Z,17.10
2019-04-16T08:16:56.052Z,17.10
2019-04-16T08:19:36.271Z,17.20
2019-04-16T08:21:55.452Z,17.30
2019-04-16T08:24:29.478Z,17.30
2019-04-16T08:26:58.358Z,17.30
2019-04-16T08:29:27.295Z,17.40
2019-04-16T08:31:56.277Z,17.40
2019-04-16T08:34:25.220Z,17.60
2019-04-16T08:36:54.068Z,17.60
2019-04-16T08:39:23.087Z,17.70
2019-04-16T08:41:53.025Z,17.70
2019-04-16T08:44:22.125Z,17.90
2019-04-16T08:46:51.053Z,17.90
2019-04-16T08:49:22.351Z,17.90
2019-04-16T08:51:50.487Z,18.00
2019-04-16T08:54:19.407Z,18.00
2019-04-16T08:56:48.401Z,18.00
2019-04-16T08:59:17.330Z,18.00
2019-04-16T09:01:46.662Z,18.10
2019-04-16T09:04:15.605Z,18.30
2019-04-16T09:06:46.372Z,18.30
2019-04-16T09:09:31.929Z,18.30
2019-04-16T09:12:07.870Z,18.30
2019-04-16T09:14:37.174Z,18.30
2019-04-16T09:17:15.691Z,18.30
2019-04-16T09:19:54.475Z,18.40
2019-04-16T09:22:23.322Z,18.40
2019-04-16T09:24:59.953Z,18.50
2019-04-16T09:27:40.514Z,18.50
2019-04-16T09:30:27.963Z,18.60
2019-04-16T09:33:02.322Z,18.60
2019-04-16T09:35:35.518Z,18.80
2019-04-16T09:38:18.798Z,18.90
2019-04-16T09:41:12.931Z,18.90
2019-04-16T09:43:44.943Z,19.00
2019-04-16T09:46:21.059Z,19.00
2019-04-16T09:48:44.586Z,19.20
2019-04-16T09:51:18.911Z,19.20
2019-04-16T09:53:44.097Z,19.30
2019-04-16T09:56:29.913Z,19.40
2019-04-16T09:59:14.768Z,19.50
2019-04-16T10:01:45.178Z,19.50
2019-04-16T10:04:16.366Z,19.60
2019-04-16T10:06:45.342Z,19.60
2019-04-16T10:09:20.023Z,19.60
2019-04-16T10:11:44.983Z,19.70
2019-04-16T10:14:13.915Z,19.80
2019-04-16T10:16:42.904Z,19.90
2019-04-16T10:19:11.897Z,20.00
2019-04-16T10:21:40.732Z,20.10
2019-04-16T10:24:27.496Z,20.20
2019-04-16T10:26:59.908Z,20.20
2019-04-16T10:29:28.118Z,20.40
2019-04-16T10:31:57.130Z,20.50
2019-04-16T10:34:26.005Z,20.50
2019-04-16T10:36:54.946Z,20.60
2019-04-16T10:39:30.132Z,20.60
2019-04-16T10:42:29.987Z,20.60
2019-04-16T10:45:10.431Z,20.60
2019-04-16T10:47:51.532Z,20.60
2019-04-16T10:50:39.602Z,20.60
2019-04-16T10:53:32.335Z,20.60
2019-04-16T10:56:12.276Z,20.70
2019-04-16T10:58:59.111Z,20.70
2019-04-16T11:01:35.738Z,20.90
2019-04-16T11:04:22.538Z,20.90
2019-04-16T11:06:52.088Z,20.90
2019-04-16T11:09:20.976Z,21.00
2019-04-16T11:11:49.930Z,21.00
2019-04-16T11:14:18.986Z,21.00
2019-04-16T11:16:50.720Z,21.00
2019-04-16T11:19:19.971Z,20.90
2019-04-16T11:21:48.882Z,20.80
2019-04-16T11:24:20.469Z,20.60
2019-04-16T11:26:48.525Z,20.30
2019-04-16T11:29:17.361Z,20.10
2019-04-16T11:31:46.296Z,19.90
2019-04-16T11:34:15.263Z,19.80
2019-04-16T11:36:44.307Z,19.60
2019-04-16T11:39:13.343Z,19.50
2019-04-16T11:41:42.356Z,19.40
2019-04-16T11:44:15.610Z,19.30
2019-04-16T11:46:41.990Z,19.30
2019-04-16T11:49:10.989Z,19.20
2019-04-16T11:51:39.846Z,19.10
2019-04-16T11:54:11.422Z,19.10
2019-04-16T11:56:39.301Z,19.10
2019-04-16T11:59:08.211Z,19.00
2019-04-16T12:01:46.485Z,19.00
2019-04-16T12:04:21.535Z,19.00
2019-04-16T12:07:08.457Z,18.90
2019-04-16T12:09:46.134Z,18.90
2019-04-16T12:12:20.390Z,18.90
2019-04-16T12:15:26.569Z,18.90
2019-04-16T12:18:23.617Z,18.90
2019-04-16T12:20:58.840Z,18.80
2019-04-16T12:23:33.866Z,18.80
2019-04-16T12:26:27.914Z,18.80
2019-04-16T12:29:12.783Z,18.70
2019-04-16T12:32:03.584Z,18.70
2019-04-16T12:34:51.322Z,18.70
2019-04-16T12:37:37.341Z,18.70
2019-04-16T12:40:18.576Z,18.70
2019-04-16T12:43:06.121Z,18.60
2019-04-16T12:45:57.114Z,18.60
2019-04-16T12:48:37.521Z,18.60
2019-04-16T12:51:29.330Z,18.60
2019-04-16T12:54:11.809Z,18.50
2019-04-16T12:56:51.588Z,18.50
2019-04-16T12:59:42.731Z,18.50
2019-04-16T13:02:25.710Z,18.40
2019-04-16T13:04:58.776Z,18.50
2019-04-16T13:07:39.984Z,18.50
2019-04-16T13:10:37.491Z,18.50
2019-04-16T13:13:24.058Z,18.40
2019-04-16T13:16:01.214Z,18.40
2019-04-16T13:18:48.188Z,18.40
2019-04-16T13:21:19.551Z,18.40
2019-04-16T13:24:06.387Z,18.30
2019-04-16T13:26:45.897Z,18.30
2019-04-16T13:29:17.478Z,18.30
2019-04-16T13:31:46.474Z,18.30
2019-04-16T13:34:18.312Z,18.20
2019-04-16T13:36:45.938Z,18.30
2019-04-16T13:39:29.183Z,18.20
2019-04-16T13:41:58.327Z,18.20
2019-04-16T13:44:31.031Z,18.20
2019-04-16T13:47:03.033Z,18.20
2019-04-16T13:49:49.680Z,18.20
2019-04-16T13:52:20.440Z,18.20
2019-04-16T13:55:10.054Z,18.20
2019-04-16T13:57:39.445Z,18.20
2019-04-16T14:00:33.598Z,18.10
2019-04-16T14:03:05.088Z,18.10
2019-04-16T14:05:37.422Z,18.10
2019-04-16T14:08:04.826Z,18.10
2019-04-16T14:10:33.919Z,18.10
2019-04-16T14:13:02.931Z,18.10
2019-04-16T14:15:39.061Z,18.10
2019-04-16T14:18:05.185Z,18.10
2019-04-16T14:20:34.157Z,18.10
2019-04-16T14:23:03.113Z,18.10
2019-04-16T14:25:32.032Z,18.10
2019-04-16T14:28:03.147Z,18.10
2019-04-16T14:30:35.403Z,18.10
2019-04-16T14:33:07.357Z,18.10
2019-04-16T14:35:40.233Z,18.10
2019-04-16T14:38:08.407Z,18.00
2019-04-16T14:40:39.711Z,18.10
2019-04-16T14:43:08.074Z,18.00
2019-04-16T14:45:57.083Z,18.00
2019-04-16T14:48:13.761Z,18.00
2019-04-16T14:50:42.760Z,18.00
2019-04-16T14:53:13.579Z,18.00
2019-04-16T14:55:59.747Z,18.00
2019-04-16T14:58:49.438Z,18.00
2019-04-16T15:01:36.402Z,18.00
2019-04-16T15:04:23.351Z,18.00
2019-04-16T15:07:10.094Z,17.90
2019-04-16T15:09:50.562Z,18.00
2019-04-16T15:12:41.651Z,17.90
2019-04-16T15:15:23.965Z,17.90
2019-04-16T15:17:59.471Z,17.90
2019-04-16T15:20:50.488Z,18.00
2019-04-16T15:23:29.285Z,17.90
2019-04-16T15:26:11.066Z,17.90
2019-04-16T15:28:47.943Z,17.90
2019-04-16T15:31:41.088Z,17.90
2019-04-16T15:34:21.655Z,17.90
2019-04-16T15:37:12.670Z,17.90
2019-04-16T15:39:47.162Z,17.90
2019-04-16T15:42:33.045Z,17.90
2019-04-16T15:45:08.903Z,17.90
2019-04-16T15:47:54.278Z,17.90
2019-04-16T15:50:38.562Z,17.90
2019-04-16T15:53:29.610Z,17.90
2019-04-16T15:56:12.067Z,17.90
2019-04-16T15:59:04.414Z,17.90
2019-04-16T16:01:51.169Z,17.80
2019-04-16T16:04:27.826Z,17.80
2019-04-16T16:07:02.200Z,17.80
2019-04-16T16:09:58.654Z,17.80
2019-04-16T16:12:29.475Z,17.80
2019-04-16T16:14:58.409Z,17.80
2019-04-16T16:17:27.680Z,17.80
2019-04-16T16:19:56.649Z,17.80
2019-04-16T16:22:25.640Z,17.80
2019-04-16T16:24:54.550Z,17.80
2019-04-16T16:27:23.398Z,17.80
2019-04-16T16:29:52.380Z,17.80
2019-04-16T16:32:21.389Z,17.80
2019-04-16T16:34:50.285Z,17.70
2019-04-16T16:37:19.282Z,17.70
2019-04-16T16:39:48.115Z,17.80
2019-04-16T16:42:17.021Z,17.70
2019-04-16T16:44:45.877Z,17.70
2019-04-16T16:47:39.676Z,17.70
2019-04-16T16:50:10.315Z,17.70
2019-04-16T16:53:04.350Z,17.70
2019-04-16T16:55:45.705Z,17.70
2019-04-16T16:58:43.028Z,17.70
2019-04-16T17:01:46.145Z,17.70
2019-04-16T17:04:20.457Z,17.60
2019-04-16T17:06:49.400Z,17.60
2019-04-16T17:09:27.184Z,17.60
2019-04-16T17:11:57.569Z,17.60
2019-04-16T17:14:26.558Z,17.60
2019-04-16T17:16:55.558Z,17.60
2019-04-16T17:19:24.578Z,17.60
2019-04-16T17:21:53.439Z,17.60
2019-04-16T17:24:22.447Z,17.60
2019-04-16T17:26:51.443Z,17.50
2019-04-16T17:29:20.367Z,17.50
2019-04-16T17:31:50.059Z,17.50
2019-04-16T17:34:19.167Z,17.50
2019-04-16T17:36:48.081Z,17.50
2019-04-16T17:39:30.275Z,17.50
2019-04-16T17:42:05.073Z,17.50
2019-04-16T17:44:54.324Z,17.40
2019-04-16T17:47:48.555Z,17.50
2019-04-16T17:50:42.549Z,17.50
2019-04-16T17:53:21.196Z,17.50
2019-04-16T17:56:09.083Z,17.40
2019-04-16T17:58:57.055Z,17.40
2019-04-16T18:01:55.794Z,17.40
2019-04-16T18:04:46.938Z,17.40
2019-04-16T18:07:22.753Z,17.40
2019-04-16T18:10:02.026Z,17.40
2019-04-16T18:12:55.245Z,17.30
2019-04-16T18:15:50.517Z,17.30
2019-04-16T18:18:30.697Z,17.30
2019-04-16T18:21:18.654Z,17.30
2019-04-16T18:24:08.958Z,17.30
2019-04-16T18:26:55.468Z,17.30
2019-04-16T18:29:33.090Z,17.20
2019-04-16T18:32:27.642Z,17.20
2019-04-16T18:35:16.528Z,17.20
2019-04-16T18:38:03.135Z,17.20
2019-04-16T18:40:44.669Z,17.20
2019-04-16T18:43:28.204Z,17.20
2019-04-16T18:46:15.335Z,17.20
2019-04-16T18:48:45.525Z,17.20
2019-04-16T18:51:14.796Z,17.20
2019-04-16T18:53:44.143Z,17.10
2019-04-16T18:56:13.495Z,17.20
2019-04-16T18:58:42.385Z,17.20
2019-04-16T19:01:15.403Z,17.20
2019-04-16T19:03:44.390Z,17.20
2019-04-16T19:06:13.415Z,17.20
2019-04-16T19:08:42.480Z,17.20
2019-04-16T19:11:11.502Z,17.20
2019-04-16T19:13:40.358Z,17.10
2019-04-16T19:16:09.662Z,17.10
2019-04-16T19:18:38.899Z,17.10
2019-04-16T19:21:07.790Z,17.10
2019-04-16T19:23:36.698Z,17.10
2019-04-16T19:26:06.097Z,17.10
2019-04-16T19:28:36.225Z,17.10
2019-04-16T19:31:06.182Z,17.10
2019-04-16T19:33:38.329Z,17.10
2019-04-16T19:36:06.129Z,17.10
2019-04-16T19:38:35.746Z,17.00
2019-04-16T19:41:05.698Z,17.00
2019-04-16T19:43:35.558Z,17.00
2019-04-16T19:46:04.659Z,17.00
2019-04-16T19:48:35.708Z,17.00
2019-04-16T19:51:07.350Z,17.00
2019-04-16T19:53:34.785Z,17.00
2019-04-16T19:56:03.764Z,17.00
2019-04-16T19:58:32.683Z,17.00
2019-04-16T20:01:01.697Z,16.90
2019-04-16T20:03:31.324Z,16.90
2019-04-16T20:06:00.390Z,16.90
2019-04-16T20:08:34.374Z,16.90
2019-04-16T20:10:59.837Z,16.90
2019-04-16T20:13:29.721Z,16.90
2019-04-16T20:16:00.029Z,16.90
2019-04-16T20:18:29.583Z,16.90
2019-04-16T20:21:01.075Z,16.90
2019-04-16T20:23:30.117Z,16.80
2019-04-16T20:26:00.377Z,16.80
2019-04-16T20:28:29.519Z,16.80
2019-04-16T20:31:03.281Z,16.80
2019-04-16T20:33:29.098Z,16.80
2019-04-16T20:35:57.963Z,16.80
2019-04-16T20:38:29.336Z,16.80
2019-04-16T20:40:57.582Z,16.80
2019-04-16T20:43:26.654Z,16.80
2019-04-16T20:45:55.749Z,16.70
2019-04-16T20:48:24.686Z,16.70
2019-04-16T20:50:56.692Z,16.70
2019-04-16T20:53:24.263Z,16.70
2019-04-16T20:55:53.195Z,16.70
2019-04-16T20:58:22.455Z,16.70
2019-04-16T21:00:52.389Z,16.60
2019-04-16T21:03:22.585Z,16.70
2019-04-16T21:05:58.925Z,16.60
2019-04-16T21:08:25.177Z,16.60
2019-04-16T21:10:52.953Z,16.60
2019-04-16T21:13:21.863Z,16.60
2019-04-16T21:15:50.805Z,16.60
2019-04-16T21:18:19.718Z,16.60
2019-04-16T21:20:51.217Z,16.60
2019-04-16T21:23:19.118Z,16.60
2019-04-16T21:25:48.222Z,16.60
2019-04-16T21:28:39.905Z,16.60
2019-04-16T21:31:15.005Z,16.50
2019-04-16T21:33:52.187Z,16.50
2019-04-16T21:36:38.045Z,16.50
2019-04-16T21:39:17.069Z,16.50
2019-04-16T21:41:43.488Z,16.50
2019-04-16T21:44:13.274Z,16.50
2019-04-16T21:46:42.424Z,16.50
2019-04-16T21:49:11.329Z,16.50
2019-04-16T21:51:59.293Z,16.40
2019-04-16T21:54:30.545Z,16.40
2019-04-16T21:56:58.911Z,16.40
2019-04-16T21:59:27.835Z,16.40
2019-04-16T22:01:57.294Z,16.40
2019-04-16T22:04:26.444Z,16.40
2019-04-16T22:06:55.647Z,16.40
2019-04-16T22:09:24.657Z,16.40
2019-04-16T22:11:53.607Z,16.30
2019-04-16T22:14:22.995Z,16.30
2019-04-16T22:16:52.127Z,16.30
2019-04-16T22:19:20.987Z,16.20
2019-04-16T22:21:50.004Z,16.30
2019-04-16T22:24:19.745Z,16.20
2019-04-16T22:26:49.562Z,16.20
2019-04-16T22:29:18.414Z,16.20
2019-04-16T22:31:47.320Z,16.20
2019-04-16T22:34:16.219Z,16.20
2019-04-16T22:36:45.137Z,16.10
2019-04-16T22:39:23.750Z,16.10
2019-04-16T22:42:01.674Z,16.10
2019-04-16T22:45:04.946Z,16.20
2019-04-16T22:47:34.179Z,16.10
2019-04-16T22:50:14.772Z,16.10
2019-04-16T22:52:33.796Z,16.10
2019-04-16T22:55:02.630Z,16.00
2019-04-16T22:57:31.874Z,16.00
2019-04-16T23:00:01.152Z,16.00
2019-04-16T23:02:30.682Z,16.00
2019-04-16T23:05:00.082Z,16.00
2019-04-16T23:07:29.222Z,15.90
2019-04-16T23:09:58.070Z,15.90
2019-04-16T23:12:28.080Z,15.90
2019-04-16T23:14:57.436Z,15.90
2019-04-16T23:17:27.390Z,15.90
2019-04-16T23:19:56.285Z,15.90
2019-04-16T23:22:25.132Z,15.90
2019-04-16T23:24:55.137Z,15.90
2019-04-16T23:27:24.529Z,15.90
2019-04-16T23:29:53.354Z,15.90
2019-04-16T23:32:27.674Z,15.90
2019-04-16T23:34:52.756Z,15.90
2019-04-16T23:37:23.317Z,15.80
2019-04-16T23:39:52.170Z,15.80
2019-04-16T23:42:21.214Z,15.80
2019-04-16T23:45:03.687Z,15.80
2019-04-16T23:47:51.615Z,15.80
2019-04-16T23:50:46.459Z,15.80
2019-04-16T23:53:33.963Z,15.80
2019-04-16T23:56:13.652Z,15.70
2019-04-16T23:59:03.583Z,15.70
